createdAt,value
2022-09-07T00:00:36.384Z,6.40
2022-09-07T00:01:38.217Z,8.17
2022-09-07T00:02:39.862Z,4.87
2022-09-07T00:03:41.891Z,5.97
2022-09-07T00:04:43.903Z,3.70
2022-09-07T00:05:48.112Z,7.47
2022-09-07T00:06:50.026Z,6.60
2022-09-07T00:07:52.114Z,12.63
2022-09-07T00:08:53.777Z,9.77
2022-09-07T00:09:55.793Z,5.70
2022-09-07T00:11:00.785Z,5.93
2022-09-07T00:12:03.120Z,6.03
2022-09-07T00:13:06.195Z,6.10
2022-09-07T00:14:09.517Z,4.93
2022-09-07T00:15:12.877Z,4.77
2022-09-07T00:16:20.817Z,10.97
2022-09-07T00:17:22.834Z,4.23
2022-09-07T00:18:25.345Z,13.43
2022-09-07T00:19:27.390Z,4.00
2022-09-07T00:20:29.115Z,7.40
2022-09-07T00:21:32.489Z,9.77
2022-09-07T00:22:34.752Z,6.27
2022-09-07T00:23:38.208Z,8.67
2022-09-07T00:24:41.188Z,7.90
2022-09-07T00:25:42.894Z,6.60
2022-09-07T00:26:44.486Z,8.83
2022-09-07T00:27:46.090Z,10.47
2022-09-07T00:28:50.277Z,11.83
2022-09-07T00:29:52.143Z,9.57
2022-09-07T00:30:53.768Z,12.33
2022-09-07T00:31:55.720Z,18.33
2022-09-07T00:32:58.551Z,12.20
2022-09-07T00:34:01.876Z,11.53
2022-09-07T00:35:04.643Z,14.00
2022-09-07T00:36:06.420Z,12.57
2022-09-07T00:37:08.319Z,8.70
2022-09-07T00:38:09.908Z,11.80
2022-09-07T00:39:11.531Z,6.67
2022-09-07T00:40:13.649Z,10.70
2022-09-07T00:41:16.867Z,6.00
2022-09-07T00:42:20.265Z,6.20
2022-09-07T00:43:33.486Z,10.90
2022-09-07T00:44:57.604Z,10.83
2022-09-07T00:46:00.409Z,5.67
2022-09-07T00:47:02.083Z,10.27
2022-09-07T00:48:15.246Z,8.47
2022-09-07T00:49:21.885Z,7.33
2022-09-07T00:50:29.873Z,3.50
2022-09-07T00:51:55.744Z,6.60
2022-09-07T00:53:07.267Z,4.77
2022-09-07T00:54:12.801Z,10.20
2022-09-07T00:55:16.428Z,8.83
2022-09-07T00:56:18.071Z,6.97
2022-09-07T00:57:20.132Z,4.13
2022-09-07T00:58:22.732Z,4.30
2022-09-07T00:59:32.391Z,7.73
2022-09-07T01:00:34.803Z,5.33
2022-09-07T01:01:39.181Z,7.53
2022-09-07T01:02:41.813Z,5.10
2022-09-07T01:03:49.934Z,7.53
2022-09-07T01:04:57.160Z,13.70
2022-09-07T01:06:27.070Z,4.37
2022-09-07T01:07:28.665Z,7.80
2022-09-07T01:08:30.606Z,10.80
2022-09-07T01:09:33.392Z,5.70
2022-09-07T01:10:36.288Z,9.17
2022-09-07T01:11:38.931Z,7.43
2022-09-07T01:12:40.851Z,11.93
2022-09-07T01:13:45.143Z,8.17
2022-09-07T01:14:53.493Z,6.70
2022-09-07T01:16:28.959Z,6.53
2022-09-07T01:17:33.559Z,4.50
2022-09-07T01:18:53.450Z,11.73
2022-09-07T01:20:23.066Z,7.60
2022-09-07T01:21:36.116Z,4.73
2022-09-07T01:22:59.587Z,4.97
2022-09-07T01:24:10.947Z,18.03
2022-09-07T01:25:28.900Z,4.93
2022-09-07T01:26:58.155Z,7.10
2022-09-07T01:28:24.602Z,8.17
2022-09-07T01:29:32.250Z,10.40
2022-09-07T01:30:37.504Z,9.00
2022-09-07T01:31:53.070Z,6.07
2022-09-07T01:33:29.911Z,8.40
2022-09-07T01:34:32.317Z,8.60
2022-09-07T01:35:40.180Z,5.90
2022-09-07T01:36:56.870Z,10.70
2022-09-07T01:38:22.987Z,7.33
2022-09-07T01:39:32.336Z,8.10
2022-09-07T01:40:43.982Z,7.03
2022-09-07T01:42:08.726Z,8.90
2022-09-07T01:43:23.584Z,8.50
2022-09-07T01:44:34.306Z,9.70
2022-09-07T01:45:40.283Z,7.80
2022-09-07T01:47:01.474Z,6.83
2022-09-07T01:48:08.674Z,8.67
2022-09-07T01:49:14.585Z,10.30
2022-09-07T01:50:28.475Z,18.90
2022-09-07T01:51:34.757Z,16.20
2022-09-07T01:52:40.421Z,14.97
2022-09-07T01:53:54.045Z,17.10
2022-09-07T01:55:03.561Z,13.33
2022-09-07T01:56:07.401Z,5.80
2022-09-07T01:57:15.919Z,9.23
2022-09-07T01:58:23.814Z,11.50
2022-09-07T01:59:39.463Z,8.50
2022-09-07T02:00:46.187Z,12.93
2022-09-07T02:01:54.701Z,6.60
2022-09-07T02:03:05.358Z,5.13
2022-09-07T02:04:21.990Z,14.53
2022-09-07T02:05:26.911Z,7.97
2022-09-07T02:06:48.796Z,6.33
2022-09-07T02:07:59.376Z,8.70
2022-09-07T02:09:22.766Z,7.40
2022-09-07T02:10:28.524Z,9.37
2022-09-07T02:11:43.962Z,12.53
2022-09-07T02:12:56.890Z,14.37
2022-09-07T02:14:04.310Z,11.70
2022-09-07T02:15:14.756Z,11.77
2022-09-07T02:16:37.340Z,14.33
2022-09-07T02:17:45.944Z,6.53
2022-09-07T02:18:52.973Z,18.00
2022-09-07T02:20:00.078Z,12.27
2022-09-07T02:21:05.723Z,22.50
2022-09-07T02:22:12.394Z,20.50
2022-09-07T02:23:23.527Z,21.20
2022-09-07T02:24:31.323Z,12.33
2022-09-07T02:25:39.108Z,15.03
2022-09-07T02:26:42.103Z,19.20
2022-09-07T02:27:51.767Z,20.27
2022-09-07T02:28:53.449Z,14.10
2022-09-07T02:29:58.154Z,12.70
2022-09-07T02:31:00.815Z,22.50
2022-09-07T02:32:03.307Z,15.63
2022-09-07T02:33:05.871Z,16.67
2022-09-07T02:34:08.378Z,14.50
2022-09-07T02:35:10.351Z,15.47
2022-09-07T02:36:14.985Z,13.43
2022-09-07T02:37:19.255Z,12.07
2022-09-07T02:38:21.271Z,15.63
2022-09-07T02:39:22.856Z,24.33
2022-09-07T02:40:24.615Z,19.13
2022-09-07T02:41:41.837Z,20.23
2022-09-07T02:42:45.610Z,17.93
2022-09-07T02:43:47.212Z,13.50
2022-09-07T02:44:49.367Z,13.67
2022-09-07T02:46:17.655Z,14.03
2022-09-07T02:47:26.733Z,18.20
2022-09-07T02:48:57.596Z,10.37
2022-09-07T02:50:26.810Z,14.37
2022-09-07T02:51:37.349Z,19.00
2022-09-07T02:53:01.280Z,12.73
2022-09-07T02:54:24.745Z,14.90
2022-09-07T02:55:27.105Z,15.20
2022-09-07T02:56:47.435Z,11.30
2022-09-07T02:58:08.243Z,13.43
2022-09-07T02:59:25.073Z,17.67
2022-09-07T03:00:36.206Z,21.73
2022-09-07T03:01:57.074Z,17.13
2022-09-07T03:03:38.545Z,18.60
2022-09-07T03:04:47.533Z,13.97
2022-09-07T03:05:50.858Z,15.93
2022-09-07T03:07:03.780Z,14.73
2022-09-07T03:08:11.745Z,21.23
2022-09-07T03:09:22.366Z,15.80
2022-09-07T03:10:24.509Z,18.40
2022-09-07T03:11:26.747Z,12.40
2022-09-07T03:12:45.152Z,23.17
2022-09-07T03:13:47.092Z,29.33
2022-09-07T03:14:48.754Z,21.47
2022-09-07T03:15:55.694Z,20.30
2022-09-07T03:16:58.036Z,20.03
2022-09-07T03:17:59.889Z,23.60
2022-09-07T03:19:01.787Z,23.20
2022-09-07T03:20:04.253Z,21.80
2022-09-07T03:21:06.493Z,25.80
2022-09-07T03:22:08.770Z,15.33
2022-09-07T03:23:11.377Z,13.97
2022-09-07T03:24:13.434Z,23.70
2022-09-07T03:25:15.825Z,14.80
2022-09-07T03:26:24.233Z,17.63
2022-09-07T03:27:26.586Z,16.63
2022-09-07T03:28:29.228Z,13.67
2022-09-07T03:29:31.101Z,19.57
2022-09-07T03:30:34.470Z,21.73
2022-09-07T03:31:37.204Z,19.37
2022-09-07T03:32:40.797Z,15.70
2022-09-07T03:33:42.445Z,26.20
2022-09-07T03:34:44.771Z,16.87
2022-09-07T03:35:56.602Z,16.13
2022-09-07T03:36:58.155Z,14.97
2022-09-07T03:37:59.840Z,18.97
2022-09-07T03:39:01.626Z,14.63
2022-09-07T03:40:08.129Z,18.60
2022-09-07T03:41:11.210Z,30.53
2022-09-07T03:42:12.921Z,14.90
2022-09-07T03:43:14.960Z,25.50
2022-09-07T03:44:16.607Z,13.00
2022-09-07T03:45:18.714Z,19.37
2022-09-07T03:46:21.281Z,20.43
2022-09-07T03:47:24.476Z,10.60
2022-09-07T03:48:30.551Z,17.63
2022-09-07T03:49:32.242Z,18.60
2022-09-07T03:50:35.176Z,17.53
2022-09-07T03:51:37.335Z,16.60
2022-09-07T03:52:39.317Z,23.43
2022-09-07T03:53:43.873Z,15.07
2022-09-07T03:54:45.838Z,13.90
2022-09-07T03:56:00.694Z,17.67
2022-09-07T03:57:05.223Z,14.93
2022-09-07T03:58:06.916Z,16.63
2022-09-07T03:59:08.811Z,15.67
2022-09-07T04:00:11.317Z,13.30
2022-09-07T04:01:16.192Z,32.63
2022-09-07T04:02:18.170Z,10.67
2022-09-07T04:03:21.422Z,14.40
2022-09-07T04:04:26.372Z,22.23
2022-09-07T04:05:28.305Z,17.27
2022-09-07T04:06:31.857Z,23.20
2022-09-07T04:07:33.511Z,13.40
2022-09-07T04:08:36.652Z,16.50
2022-09-07T04:09:38.772Z,17.53
2022-09-07T04:10:41.798Z,15.17
2022-09-07T04:11:45.937Z,11.63
2022-09-07T04:12:47.776Z,27.87
2022-09-07T04:13:52.082Z,22.07
2022-09-07T04:14:53.752Z,20.87
2022-09-07T04:15:56.368Z,15.70
2022-09-07T04:16:58.477Z,14.03
2022-09-07T04:18:01.386Z,12.43
2022-09-07T04:19:03.940Z,15.27
2022-09-07T04:20:06.632Z,16.50
2022-09-07T04:21:08.853Z,18.37
2022-09-07T04:22:10.652Z,28.60
2022-09-07T04:23:13.374Z,27.93
2022-09-07T04:24:16.665Z,16.30
2022-09-07T04:25:20.317Z,33.50
2022-09-07T04:26:27.959Z,23.00
2022-09-07T04:27:32.798Z,27.00
2022-09-07T04:28:35.156Z,19.67
2022-09-07T04:29:37.144Z,17.87
2022-09-07T04:30:39.638Z,17.23
2022-09-07T04:31:42.210Z,17.07
2022-09-07T04:32:46.624Z,25.80
2022-09-07T04:33:49.899Z,22.80
2022-09-07T04:34:53.876Z,18.20
2022-09-07T04:35:56.875Z,17.50
2022-09-07T04:36:58.548Z,21.57
2022-09-07T04:38:00.605Z,19.80
2022-09-07T04:39:05.040Z,23.37
2022-09-07T04:40:07.533Z,27.00
2022-09-07T04:41:14.784Z,20.80
2022-09-07T04:42:16.673Z,20.80
2022-09-07T04:43:18.658Z,18.23
2022-09-07T04:44:20.654Z,17.03
2022-09-07T04:45:22.360Z,20.00
2022-09-07T04:46:35.486Z,14.37
2022-09-07T04:47:38.760Z,26.23
2022-09-07T04:48:40.577Z,21.80
2022-09-07T04:49:43.585Z,23.73
2022-09-07T04:50:45.533Z,19.10
2022-09-07T04:51:52.849Z,20.30
2022-09-07T04:52:54.630Z,19.87
2022-09-07T04:54:00.507Z,13.87
2022-09-07T04:55:05.298Z,32.93
2022-09-07T04:56:07.329Z,18.30
2022-09-07T04:57:11.214Z,26.90
2022-09-07T04:58:13.671Z,14.13
2022-09-07T04:59:17.514Z,17.87
2022-09-07T05:00:19.722Z,26.13
2022-09-07T05:01:26.784Z,19.83
2022-09-07T05:02:28.595Z,23.23
2022-09-07T05:03:32.348Z,21.30
2022-09-07T05:04:37.265Z,27.43
2022-09-07T05:05:39.302Z,17.13
2022-09-07T05:06:40.973Z,18.50
2022-09-07T05:07:42.800Z,14.67
2022-09-07T05:08:48.046Z,19.47
2022-09-07T05:09:52.341Z,20.20
2022-09-07T05:10:56.040Z,26.83
2022-09-07T05:11:58.116Z,15.50
2022-09-07T05:13:00.682Z,23.50
2022-09-07T05:14:03.766Z,16.67
2022-09-07T05:15:06.429Z,16.20
2022-09-07T05:16:12.670Z,20.63
2022-09-07T05:17:15.003Z,17.83
2022-09-07T05:18:16.727Z,20.70
2022-09-07T05:19:18.792Z,20.70
2022-09-07T05:20:21.689Z,21.90
2022-09-07T05:21:26.674Z,18.13
2022-09-07T05:22:28.395Z,16.03
2022-09-07T05:23:30.509Z,13.87
2022-09-07T05:24:34.626Z,22.63
2022-09-07T05:25:43.442Z,16.23
2022-09-07T05:26:46.068Z,14.70
2022-09-07T05:27:50.388Z,22.60
2022-09-07T05:28:52.462Z,18.23
2022-09-07T05:30:03.466Z,24.60
2022-09-07T05:31:19.758Z,18.30
2022-09-07T05:32:21.876Z,18.40
2022-09-07T05:34:47.567Z,13.60
2022-09-07T05:36:00.414Z,19.60
2022-09-07T05:37:04.193Z,22.27
2022-09-07T05:38:05.813Z,17.97
2022-09-07T05:39:08.602Z,16.67
2022-09-07T05:40:11.788Z,17.10
2022-09-07T05:41:15.760Z,15.83
2022-09-07T05:42:18.162Z,13.43
2022-09-07T05:43:21.374Z,23.20
2022-09-07T05:45:46.237Z,18.73
2022-09-07T05:46:49.927Z,23.53
2022-09-07T05:47:51.695Z,16.17
2022-09-07T05:48:53.612Z,14.17
2022-09-07T05:49:57.178Z,25.03
2022-09-07T05:51:00.561Z,18.63
2022-09-07T05:52:02.460Z,30.00
2022-09-07T05:53:04.361Z,22.33
2022-09-07T05:54:06.133Z,17.90
2022-09-07T05:55:28.890Z,12.87
2022-09-07T05:56:30.304Z,25.37
2022-09-07T05:57:33.651Z,17.90
2022-09-07T05:58:36.775Z,23.73
2022-09-07T05:59:38.573Z,30.97
2022-09-07T06:00:40.519Z,19.10
2022-09-07T06:01:42.412Z,24.80
2022-09-07T06:02:44.435Z,20.70
2022-09-07T06:03:46.389Z,23.13
2022-09-07T06:04:48.869Z,20.20
2022-09-07T06:06:01.887Z,26.87
2022-09-07T06:07:20.999Z,31.97
2022-09-07T06:08:24.182Z,20.33
2022-09-07T06:09:30.227Z,17.80
2022-09-07T06:11:42.854Z,14.53
2022-09-07T06:12:49.198Z,10.00
2022-09-07T06:13:55.575Z,16.50
2022-09-07T06:14:57.822Z,7.90
2022-09-07T06:16:04.911Z,12.27
2022-09-07T06:17:06.647Z,13.90
2022-09-07T06:18:08.661Z,7.67
2022-09-07T06:19:11.017Z,10.23
2022-09-07T06:20:12.982Z,6.87
2022-09-07T06:21:20.753Z,8.80
2022-09-07T06:22:22.814Z,10.70
2022-09-07T06:23:24.687Z,10.63
2022-09-07T06:24:26.338Z,6.30
2022-09-07T06:25:28.131Z,9.30
2022-09-07T06:26:29.977Z,13.60
2022-09-07T06:27:31.730Z,9.63
2022-09-07T06:28:38.635Z,16.67
2022-09-07T06:29:40.576Z,10.23
2022-09-07T06:30:42.197Z,10.57
2022-09-07T06:33:05.755Z,7.20
2022-09-07T06:34:07.627Z,19.80
2022-09-07T06:35:10.061Z,8.00
2022-09-07T06:36:13.783Z,10.70
2022-09-07T06:37:16.066Z,13.30
2022-09-07T06:38:17.932Z,6.37
2022-09-07T06:39:19.726Z,4.60
2022-09-07T06:40:23.087Z,11.03
2022-09-07T06:42:50.727Z,8.83
2022-09-07T06:43:55.168Z,10.50
2022-09-07T06:44:56.868Z,8.07
2022-09-07T06:47:21.282Z,6.00
2022-09-07T06:48:23.288Z,9.30
2022-09-07T06:49:26.074Z,7.83
2022-09-07T06:50:28.167Z,6.13
2022-09-07T06:51:30.876Z,8.80
2022-09-07T06:55:19.886Z,8.10
2022-09-07T06:56:21.652Z,11.33
2022-09-07T06:57:23.790Z,13.53
2022-09-07T06:58:27.080Z,10.83
2022-09-07T06:59:29.051Z,10.30
2022-09-07T07:00:31.045Z,10.00
2022-09-07T07:01:33.965Z,22.23
2022-09-07T07:02:35.609Z,7.93
2022-09-07T07:03:38.048Z,9.93
2022-09-07T07:04:41.343Z,15.33
2022-09-07T07:05:59.646Z,6.70
2022-09-07T07:07:01.352Z,12.00
2022-09-07T07:08:05.019Z,12.70
2022-09-07T07:09:12.315Z,7.50
2022-09-07T07:10:14.179Z,7.70
2022-09-07T07:11:17.221Z,10.37
2022-09-07T07:14:21.547Z,18.20
2022-09-07T07:15:26.651Z,20.03
2022-09-07T07:16:28.465Z,15.73
2022-09-07T07:17:30.319Z,10.80
2022-09-07T07:18:33.230Z,10.80
2022-09-07T07:19:35.096Z,12.13
2022-09-07T07:20:38.881Z,23.03
2022-09-07T07:22:03.408Z,12.57
2022-09-07T07:23:03.406Z,15.07
2022-09-07T07:24:08.187Z,12.20
2022-09-07T07:25:10.189Z,18.03
2022-09-07T07:26:18.508Z,17.97
2022-09-07T07:27:21.694Z,15.97
2022-09-07T07:29:47.886Z,10.30
2022-09-07T07:30:56.388Z,9.30
2022-09-07T07:31:58.429Z,10.40
2022-09-07T07:33:00.204Z,9.17
2022-09-07T07:34:03.737Z,8.77
2022-09-07T07:35:07.822Z,16.67
2022-09-07T07:36:14.346Z,13.03
2022-09-07T07:37:16.190Z,10.57
2022-09-07T07:42:26.798Z,10.63
2022-09-07T07:43:28.451Z,6.50
2022-09-07T07:44:30.556Z,4.93
2022-09-07T07:46:54.945Z,7.47
2022-09-07T07:47:56.979Z,9.70
2022-09-07T07:49:01.069Z,7.43
2022-09-07T07:51:26.376Z,6.93
2022-09-07T07:54:01.126Z,9.23
2022-09-07T07:55:43.011Z,11.77
2022-09-07T07:56:25.898Z,5.63
2022-09-07T07:57:29.113Z,8.40
2022-09-07T07:58:33.124Z,8.73
2022-09-07T07:59:35.484Z,10.40
2022-09-07T08:00:53.020Z,7.83
2022-09-07T08:01:55.266Z,8.87
2022-09-07T08:02:57.659Z,13.53
2022-09-07T08:03:59.233Z,5.53
2022-09-07T08:05:01.680Z,4.83
2022-09-07T08:06:11.211Z,6.03
2022-09-07T08:07:13.369Z,12.57
2022-09-07T08:08:15.587Z,12.53
2022-09-07T08:09:17.364Z,6.43
2022-09-07T08:10:19.564Z,8.30
2022-09-07T08:11:22.710Z,10.00
2022-09-07T08:12:29.575Z,11.87
2022-09-07T08:13:33.802Z,9.53
2022-09-07T08:14:42.009Z,7.23
2022-09-07T08:15:47.174Z,10.35
2022-09-07T08:16:49.224Z,11.18
2022-09-07T08:17:51.198Z,7.85
2022-09-07T08:18:53.778Z,6.13
2022-09-07T08:19:56.156Z,7.72
2022-09-07T08:21:11.892Z,7.53
2022-09-07T08:22:13.844Z,8.75
2022-09-07T08:23:15.818Z,2.83
2022-09-07T08:24:19.268Z,5.60
2022-09-07T08:25:21.343Z,5.07
2022-09-07T08:26:24.702Z,6.93
2022-09-07T08:27:26.790Z,7.50
2022-09-07T08:28:30.724Z,17.48
2022-09-07T08:29:34.539Z,13.23
2022-09-07T08:30:39.792Z,15.50
2022-09-07T08:31:41.419Z,5.43
2022-09-07T08:32:43.355Z,12.20
2022-09-07T08:33:45.252Z,13.27
2022-09-07T08:34:46.785Z,10.27
2022-09-07T08:35:56.707Z,12.60
2022-09-07T08:36:58.747Z,9.00
2022-09-07T08:38:00.591Z,6.83
2022-09-07T08:39:02.905Z,15.43
2022-09-07T08:40:04.935Z,6.30
2022-09-07T08:41:28.951Z,12.33
2022-09-07T08:43:13.402Z,4.40
2022-09-07T08:44:34.171Z,5.20
2022-09-07T08:45:49.118Z,5.23
2022-09-07T08:47:00.689Z,9.83
2022-09-07T08:48:05.406Z,14.03
2022-09-07T08:49:27.796Z,7.20
2022-09-07T08:50:53.230Z,7.10
2022-09-07T08:52:03.096Z,5.93
2022-09-07T08:53:12.968Z,8.50
2022-09-07T08:54:17.167Z,8.03
2022-09-07T08:55:33.609Z,8.10
2022-09-07T08:56:39.729Z,6.87
2022-09-07T08:57:46.271Z,10.70
2022-09-07T08:58:54.308Z,8.27
2022-09-07T09:00:14.193Z,5.73
2022-09-07T09:01:34.575Z,6.97
2022-09-07T09:02:43.521Z,6.60
2022-09-07T09:05:36.633Z,6.60
2022-09-07T09:06:59.190Z,6.10
2022-09-07T09:08:14.476Z,12.50
2022-09-07T09:09:35.852Z,5.80
2022-09-07T09:10:49.610Z,4.97
2022-09-07T09:12:11.835Z,8.80
2022-09-07T09:13:19.880Z,8.73
2022-09-07T09:14:46.569Z,8.03
2022-09-07T09:16:14.897Z,6.17
2022-09-07T09:17:44.683Z,4.60
2022-09-07T09:19:19.489Z,7.07
2022-09-07T09:20:41.753Z,5.40
2022-09-07T09:21:43.646Z,4.87
2022-09-07T09:22:45.861Z,6.87
2022-09-07T09:23:51.447Z,9.40
2022-09-07T09:25:01.544Z,8.97
2022-09-07T09:26:24.921Z,5.30
2022-09-07T09:27:27.935Z,13.77
2022-09-07T09:28:31.854Z,3.77
2022-09-07T09:29:34.635Z,5.30
2022-09-07T09:30:36.914Z,6.67
2022-09-07T09:31:38.782Z,6.13
2022-09-07T09:32:43.980Z,13.63
2022-09-07T09:34:05.632Z,5.17
2022-09-07T09:35:25.705Z,8.87
2022-09-07T09:36:34.582Z,5.27
2022-09-07T09:37:38.746Z,10.33
2022-09-07T09:38:40.973Z,8.03
2022-09-07T09:39:45.207Z,7.20
2022-09-07T09:40:52.594Z,10.40
2022-09-07T09:41:56.694Z,4.63
2022-09-07T09:43:25.496Z,10.53
2022-09-07T09:44:37.794Z,6.80
2022-09-07T09:47:34.045Z,4.50
2022-09-07T09:48:40.672Z,10.73
2022-09-07T09:49:45.450Z,10.52
2022-09-07T09:52:30.494Z,9.95
2022-09-07T09:53:49.922Z,5.07
2022-09-07T09:54:53.887Z,6.43
2022-09-07T09:55:56.607Z,10.68
2022-09-07T09:56:58.538Z,11.88
2022-09-07T10:05:01.276Z,6.10
2022-09-07T10:06:09.153Z,13.15
2022-09-07T10:07:26.576Z,8.30
2022-09-07T10:08:32.975Z,12.85
2022-09-07T10:09:50.055Z,7.78
2022-09-07T10:10:59.545Z,5.05
2022-09-07T10:12:07.098Z,9.75
2022-09-07T10:13:21.551Z,4.22
2022-09-07T10:14:32.390Z,4.90
2022-09-07T10:15:41.312Z,4.35
2022-09-07T10:16:44.392Z,7.85
2022-09-07T10:17:49.772Z,4.47
2022-09-07T10:18:55.540Z,8.25
2022-09-07T10:20:24.182Z,7.22
2022-09-07T10:21:31.693Z,4.03
2022-09-07T10:22:38.989Z,7.00
2022-09-07T10:23:48.022Z,4.95
2022-09-07T10:24:51.787Z,4.63
2022-09-07T10:25:55.977Z,7.63
2022-09-07T10:26:57.979Z,9.45
2022-09-07T10:28:10.293Z,4.50
2022-09-07T10:29:31.574Z,7.78
2022-09-07T10:30:58.731Z,10.85
2022-09-07T10:32:25.264Z,1.95
2022-09-07T10:35:25.716Z,7.68
2022-09-07T10:36:36.189Z,6.35
2022-09-07T10:38:16.854Z,7.40
2022-09-07T10:39:34.350Z,8.85
2022-09-07T10:40:43.022Z,7.63
2022-09-07T10:42:14.460Z,4.82
2022-09-07T10:43:37.487Z,4.35
2022-09-07T10:45:15.999Z,5.95
2022-09-07T10:48:15.957Z,7.03
2022-09-07T10:49:20.705Z,3.17
2022-09-07T10:50:40.435Z,7.18
2022-09-07T10:52:02.933Z,2.58
2022-09-07T10:53:39.530Z,5.93
2022-09-07T10:54:55.545Z,5.40
2022-09-07T10:56:35.632Z,6.55
2022-09-07T10:57:48.217Z,5.40
2022-09-07T10:59:18.631Z,5.00
2022-09-07T11:00:21.947Z,7.05
2022-09-07T11:01:51.424Z,5.47
2022-09-07T11:04:29.353Z,4.85
2022-09-07T11:05:52.059Z,11.98
2022-09-07T11:07:15.598Z,4.75
2022-09-07T11:09:15.723Z,5.28
2022-09-07T11:10:01.575Z,5.80
2022-09-07T11:11:17.367Z,4.30
2022-09-07T11:12:27.910Z,10.70
2022-09-07T11:13:40.986Z,3.92
2022-09-07T11:15:35.424Z,6.40
2022-09-07T11:16:51.019Z,10.57
2022-09-07T11:17:58.516Z,5.80
2022-09-07T11:20:37.929Z,8.90
2022-09-07T11:21:58.966Z,9.20
2022-09-07T11:23:23.300Z,3.88
2022-09-07T11:24:34.476Z,5.78
2022-09-07T11:25:46.710Z,4.10
2022-09-07T11:26:54.202Z,9.18
2022-09-07T11:28:18.245Z,4.43
2022-09-07T11:29:33.446Z,5.75
2022-09-07T11:30:40.599Z,2.60
2022-09-07T11:31:46.573Z,4.07
2022-09-07T11:33:35.451Z,12.50
2022-09-07T11:34:45.221Z,5.10
2022-09-07T11:36:12.501Z,5.23
2022-09-07T11:37:23.595Z,11.43
2022-09-07T11:38:34.883Z,2.80
2022-09-07T11:39:44.191Z,12.63
2022-09-07T11:40:53.355Z,8.10
2022-09-07T11:42:42.574Z,6.60
2022-09-07T11:43:35.864Z,10.70
2022-09-07T11:44:57.351Z,9.30
2022-09-07T11:46:16.768Z,1.70
2022-09-07T11:47:29.548Z,5.93
2022-09-07T11:48:50.383Z,9.23
2022-09-07T11:49:59.182Z,8.65
2022-09-07T11:51:10.646Z,8.77
2022-09-07T11:52:41.015Z,3.20
2022-09-07T11:54:01.339Z,3.58
2022-09-07T11:55:08.118Z,9.55
2022-09-07T11:56:36.778Z,6.20
2022-09-07T11:57:38.641Z,5.32
2022-09-07T11:59:00.818Z,3.22
2022-09-07T12:00:06.888Z,2.63
2022-09-07T12:01:11.639Z,7.35
2022-09-07T12:02:58.711Z,5.63
2022-09-07T12:04:24.809Z,6.20
2022-09-07T12:05:54.662Z,4.75
2022-09-07T12:07:21.521Z,5.47
2022-09-07T12:09:04.528Z,2.97
2022-09-07T12:10:39.170Z,5.07
2022-09-07T12:11:50.022Z,5.32
2022-09-07T12:13:27.787Z,1.50
2022-09-07T12:14:38.787Z,2.53
2022-09-07T12:16:09.317Z,2.35
2022-09-07T12:17:24.053Z,3.95
2022-09-07T12:19:05.319Z,6.38
2022-09-07T12:20:13.048Z,7.53
2022-09-07T12:21:40.414Z,7.93
2022-09-07T12:23:17.346Z,4.72
2022-09-07T12:24:41.389Z,10.93
2022-09-07T12:25:47.870Z,11.55
2022-09-07T12:26:50.819Z,5.63
2022-09-07T12:27:54.056Z,3.65
2022-09-07T12:28:56.138Z,10.27
2022-09-07T12:29:57.980Z,11.87
2022-09-07T12:31:04.990Z,11.33
2022-09-07T12:33:38.992Z,11.80
2022-09-07T12:34:52.525Z,8.03
2022-09-07T12:35:58.170Z,7.47
2022-09-07T12:37:00.751Z,2.77
2022-09-07T12:38:26.068Z,9.73
2022-09-07T12:39:33.118Z,6.40
2022-09-07T12:40:35.170Z,7.63
2022-09-07T12:41:47.376Z,10.63
2022-09-07T12:42:49.488Z,4.00
2022-09-07T12:43:51.245Z,2.20
2022-09-07T12:45:29.565Z,6.15
2022-09-07T12:46:35.117Z,3.25
2022-09-07T12:47:37.250Z,3.33
2022-09-07T12:48:47.769Z,7.35
2022-09-07T12:50:06.511Z,5.72
2022-09-07T12:52:51.671Z,5.28
2022-09-07T12:54:14.978Z,6.97
2022-09-07T12:57:38.195Z,14.57
2022-09-07T12:58:51.031Z,6.78
2022-09-07T13:00:11.083Z,8.38
2022-09-07T13:01:22.255Z,7.85
2022-09-07T13:02:42.874Z,3.92
2022-09-07T13:04:09.169Z,8.48
2022-09-07T13:05:42.790Z,2.35
2022-09-07T13:07:26.073Z,4.47
2022-09-07T13:08:52.258Z,2.90
2022-09-07T13:09:59.855Z,6.95
2022-09-07T13:11:20.266Z,4.50
2022-09-07T13:12:56.725Z,3.00
2022-09-07T13:14:08.913Z,8.85
2022-09-07T13:15:48.757Z,2.08
2022-09-07T13:17:30.320Z,2.80
2022-09-07T13:18:39.698Z,9.60
2022-09-07T13:20:18.290Z,4.67
2022-09-07T13:21:38.910Z,7.10
2022-09-07T13:22:41.970Z,6.07
2022-09-07T13:25:28.619Z,7.63
2022-09-07T13:27:24.111Z,4.10
2022-09-07T13:28:37.252Z,6.33
2022-09-07T13:29:50.870Z,9.20
2022-09-07T13:31:11.509Z,5.70
2022-09-07T13:33:57.113Z,5.63
2022-09-07T13:35:04.834Z,4.17
2022-09-07T13:36:22.241Z,3.53
2022-09-07T13:37:26.553Z,10.93
2022-09-07T13:38:30.371Z,4.73
2022-09-07T13:39:44.908Z,3.97
2022-09-07T13:40:49.302Z,6.00
2022-09-07T13:41:55.596Z,5.77
2022-09-07T13:42:59.677Z,8.13
2022-09-07T13:44:04.140Z,3.90
2022-09-07T13:45:34.481Z,5.30
2022-09-07T13:47:15.267Z,14.10
2022-09-07T13:48:42.541Z,5.80
2022-09-07T13:49:55.705Z,8.43
2022-09-07T13:51:15.735Z,2.13
2022-09-07T13:52:22.630Z,4.97
2022-09-07T13:53:52.991Z,6.33
2022-09-07T13:55:08.260Z,3.73
2022-09-07T13:56:31.244Z,7.33
2022-09-07T13:58:01.111Z,6.53
2022-09-07T13:59:18.898Z,11.33
2022-09-07T14:00:20.624Z,9.47
2022-09-07T14:01:27.935Z,2.63
2022-09-07T14:02:34.169Z,4.23
2022-09-07T14:04:02.392Z,4.83
2022-09-07T14:05:06.605Z,8.23
2022-09-07T14:06:20.857Z,6.90
2022-09-07T14:07:25.126Z,4.77
2022-09-07T14:08:28.894Z,3.90
2022-09-07T14:09:30.608Z,2.53
2022-09-07T14:10:32.206Z,8.73
2022-09-07T14:11:46.639Z,10.13
2022-09-07T14:13:05.238Z,2.13
2022-09-07T14:14:12.734Z,6.53
2022-09-07T14:15:21.674Z,7.10
2022-09-07T14:16:23.286Z,9.83
2022-09-07T14:17:25.167Z,5.83
2022-09-07T14:18:31.813Z,7.20
2022-09-07T14:19:39.973Z,5.53
2022-09-07T14:20:53.583Z,4.93
2022-09-07T14:22:19.756Z,3.10
2022-09-07T14:23:30.790Z,4.60
2022-09-07T14:24:40.234Z,3.97
2022-09-07T14:27:07.090Z,6.77
2022-09-07T14:28:29.094Z,4.80
2022-09-07T14:29:33.900Z,3.67
2022-09-07T14:30:36.663Z,4.17
2022-09-07T14:31:38.325Z,6.30
2022-09-07T14:32:41.432Z,4.27
2022-09-07T14:33:57.222Z,2.07
2022-09-07T14:34:59.478Z,2.83
2022-09-07T14:36:13.264Z,3.87
2022-09-07T14:37:24.113Z,2.87
2022-09-07T14:39:56.676Z,11.33
2022-09-07T14:41:01.606Z,4.30
2022-09-07T14:42:04.331Z,13.93
2022-09-07T14:43:26.715Z,3.70
2022-09-07T14:44:40.545Z,4.30
2022-09-07T14:45:42.342Z,7.83
2022-09-07T14:46:50.599Z,4.27
2022-09-07T14:47:56.517Z,4.60
2022-09-07T14:49:05.032Z,8.00
2022-09-07T14:50:17.064Z,5.87
2022-09-07T14:51:32.721Z,4.60
2022-09-07T14:53:33.318Z,2.20
2022-09-07T14:54:06.152Z,6.80
2022-09-07T14:55:25.920Z,5.77
2022-09-07T14:56:37.673Z,5.43
2022-09-07T14:57:39.452Z,2.03
2022-09-07T14:58:41.444Z,7.60
2022-09-07T14:59:47.088Z,7.67
2022-09-07T15:01:37.343Z,2.43
2022-09-07T15:02:20.995Z,2.20
2022-09-07T15:03:25.872Z,4.00
2022-09-07T15:04:28.457Z,9.83
2022-09-07T15:05:34.595Z,6.80
2022-09-07T15:07:02.354Z,1.87
2022-09-07T15:08:04.904Z,4.30
2022-09-07T15:09:25.490Z,4.87
2022-09-07T15:10:28.987Z,3.30
2022-09-07T15:11:36.501Z,4.40
2022-09-07T15:12:42.608Z,3.10
2022-09-07T15:13:53.553Z,8.63
2022-09-07T15:14:55.404Z,2.00
2022-09-07T15:16:19.125Z,2.10
2022-09-07T15:17:46.656Z,3.67
2022-09-07T15:18:52.617Z,2.97
2022-09-07T15:19:54.186Z,1.80
2022-09-07T15:20:56.107Z,6.70
2022-09-07T15:21:57.714Z,8.90
2022-09-07T15:22:59.560Z,3.37
2022-09-07T15:24:01.847Z,6.93
2022-09-07T15:25:05.576Z,2.40
2022-09-07T15:27:01.894Z,6.70
2022-09-07T15:27:32.754Z,9.73
2022-09-07T15:29:57.193Z,10.80
2022-09-07T15:32:20.488Z,4.07
2022-09-07T15:33:22.807Z,3.23
2022-09-07T15:34:24.629Z,4.17
2022-09-07T15:35:26.856Z,4.00
2022-09-07T15:36:31.873Z,4.87
2022-09-07T15:39:03.391Z,4.80
2022-09-07T15:40:29.049Z,4.43
2022-09-07T15:41:30.872Z,9.10
2022-09-07T15:43:56.617Z,7.90
2022-09-07T15:44:59.219Z,5.30
2022-09-07T15:46:03.549Z,2.80
2022-09-07T15:48:27.130Z,4.83
2022-09-07T15:49:29.183Z,11.30
2022-09-07T15:50:31.058Z,5.63
2022-09-07T15:52:54.382Z,2.70
2022-09-07T15:54:13.171Z,4.93
2022-09-07T15:55:17.571Z,5.70
2022-09-07T15:56:20.145Z,4.03
2022-09-07T15:58:43.972Z,2.00
2022-09-07T15:59:45.664Z,4.97
2022-09-07T16:00:48.048Z,5.67
2022-09-07T16:01:53.471Z,3.97
2022-09-07T16:03:11.048Z,4.07
2022-09-07T16:04:15.535Z,4.30
2022-09-07T16:05:17.746Z,7.40
2022-09-07T16:06:21.765Z,3.27
2022-09-07T16:08:24.704Z,4.93